createdAt,value
2023-12-11T00:01:09.078Z,4.63
2023-12-11T00:03:36.034Z,5.15
2023-12-11T00:06:02.880Z,3.25
2023-12-11T00:08:29.733Z,5.55
2023-12-11T00:10:56.580Z,4.57
2023-12-11T00:13:23.388Z,5.15
2023-12-11T00:15:50.227Z,3.50
2023-12-11T00:18:17.034Z,3.72
2023-12-11T00:20:44.332Z,5.47
2023-12-11T00:23:11.125Z,4.03
2023-12-11T00:25:38.497Z,4.28
2023-12-11T00:28:05.334Z,3.67
2023-12-11T00:30:32.143Z,4.15
2023-12-11T00:32:58.972Z,6.20
2023-12-11T00:35:25.877Z,3.42
2023-12-11T00:37:52.798Z,3.92
2023-12-11T00:40:19.655Z,4.00
2023-12-11T00:42:46.530Z,3.20
2023-12-11T00:45:14.981Z,3.40
2023-12-11T00:47:41.808Z,4.35
2023-12-11T00:50:09.098Z,3.45
2023-12-11T00:52:36.680Z,4.15
2023-12-11T00:55:03.827Z,4.13
2023-12-11T00:57:31.401Z,3.20
2023-12-11T00:59:58.421Z,2.97
2023-12-11T01:02:25.213Z,5.25
2023-12-11T01:04:52.029Z,3.83
2023-12-11T01:07:18.836Z,3.42
2023-12-11T01:09:45.824Z,4.97
2023-12-11T01:12:12.849Z,4.10
2023-12-11T01:14:39.738Z,3.70
2023-12-11T01:17:36.493Z,5.50
2023-12-11T01:19:53.662Z,3.28
2023-12-11T01:22:20.521Z,3.22
2023-12-11T01:24:47.412Z,3.60
2023-12-11T01:27:14.232Z,3.30
2023-12-11T01:29:41.002Z,3.17
2023-12-11T01:32:07.764Z,3.80
2023-12-11T01:34:34.770Z,3.40
2023-12-11T01:37:01.723Z,3.85
2023-12-11T01:39:28.619Z,4.53
2023-12-11T01:41:55.400Z,2.90
2023-12-11T01:44:22.187Z,3.85
2023-12-11T01:46:49.055Z,3.35
2023-12-11T01:49:16.113Z,4.03
2023-12-11T01:51:43.379Z,3.30
2023-12-11T01:54:10.166Z,3.53
2023-12-11T01:56:36.982Z,2.95
2023-12-11T01:59:03.735Z,2.95
2023-12-11T02:01:30.646Z,2.40
2023-12-11T02:03:57.587Z,3.15
2023-12-11T02:06:24.418Z,4.25
2023-12-11T02:08:51.292Z,3.53
2023-12-11T02:11:18.103Z,3.28
2023-12-11T02:13:45.092Z,3.40
2023-12-11T02:16:16.992Z,3.28
2023-12-11T02:18:44.428Z,3.05
2023-12-11T02:21:14.281Z,2.25
2023-12-11T02:24:03.218Z,4.80
2023-12-11T02:26:30.446Z,2.20
2023-12-11T02:28:57.283Z,3.40
2023-12-11T02:31:24.065Z,2.58
2023-12-11T02:33:51.004Z,4.32
2023-12-11T02:36:17.921Z,4.05
2023-12-11T02:38:44.878Z,2.83
2023-12-11T02:41:11.710Z,2.90
2023-12-11T02:43:38.549Z,3.33
2023-12-11T02:46:05.590Z,2.65
2023-12-11T02:48:32.660Z,2.55
2023-12-11T02:50:59.664Z,3.53
2023-12-11T02:53:26.511Z,3.40
2023-12-11T02:55:53.255Z,3.40
2023-12-11T02:58:20.086Z,2.60
2023-12-11T03:00:46.965Z,3.83
2023-12-11T03:03:13.776Z,2.47
2023-12-11T03:05:40.598Z,2.20
2023-12-11T03:08:07.458Z,2.78
2023-12-11T03:10:34.262Z,3.05
2023-12-11T03:13:01.128Z,4.25
2023-12-11T03:15:27.957Z,2.35
2023-12-11T03:17:54.830Z,2.53
2023-12-11T03:20:21.649Z,2.83
2023-12-11T03:22:48.439Z,2.88
2023-12-11T03:25:15.392Z,3.53
2023-12-11T03:27:42.306Z,3.58
2023-12-11T03:30:09.371Z,3.22
2023-12-11T03:32:36.240Z,2.38
2023-12-11T03:35:04.102Z,2.88
2023-12-11T03:37:31.003Z,4.32
2023-12-11T03:39:57.950Z,3.28
2023-12-11T03:42:24.754Z,3.05
2023-12-11T03:44:51.611Z,2.92
2023-12-11T03:47:18.693Z,4.40
2023-12-11T03:49:45.642Z,3.00
2023-12-11T03:52:12.555Z,3.60
2023-12-11T03:54:39.483Z,2.83
2023-12-11T03:57:06.289Z,4.53
2023-12-11T03:59:33.684Z,3.75
2023-12-11T04:02:00.910Z,4.32
2023-12-11T04:04:27.963Z,3.55
2023-12-11T04:06:54.885Z,3.80
2023-12-11T04:09:22.223Z,3.20
2023-12-11T04:11:48.960Z,3.60
2023-12-11T04:14:15.742Z,4.18
2023-12-11T04:16:45.517Z,3.28
2023-12-11T04:19:13.157Z,3.67
2023-12-11T04:21:40.382Z,3.67
2023-12-11T04:24:07.271Z,4.28
2023-12-11T04:26:34.123Z,3.30
2023-12-11T04:29:00.926Z,2.95
2023-12-11T04:31:27.714Z,3.97
2023-12-11T04:33:54.733Z,4.07
2023-12-11T04:36:21.701Z,3.53
2023-12-11T04:38:48.571Z,3.40
2023-12-11T04:41:15.415Z,4.30
2023-12-11T04:43:42.417Z,3.30
2023-12-11T04:46:09.207Z,3.72
2023-12-11T04:48:36.276Z,2.60
2023-12-11T04:51:04.324Z,2.70
2023-12-11T04:53:31.119Z,4.15
2023-12-11T04:55:58.111Z,2.60
2023-12-11T04:58:25.225Z,2.60
2023-12-11T05:00:52.034Z,3.97
2023-12-11T05:03:18.970Z,3.42
2023-12-11T05:05:45.772Z,3.58
2023-12-11T05:08:12.565Z,2.78
2023-12-11T05:10:39.431Z,2.92
2023-12-11T05:13:06.366Z,3.60
2023-12-11T05:15:33.243Z,3.63
2023-12-11T05:18:00.111Z,3.42
2023-12-11T05:20:26.946Z,2.75
2023-12-11T05:22:53.794Z,3.28
2023-12-11T05:25:21.150Z,3.75
2023-12-11T05:27:47.955Z,3.17
2023-12-11T05:30:14.998Z,2.63
2023-12-11T05:32:42.474Z,2.45
2023-12-11T05:35:09.682Z,3.08
2023-12-11T05:37:36.511Z,2.78
2023-12-11T05:40:21.371Z,3.13
2023-12-11T05:42:51.121Z,3.42
2023-12-11T05:45:18.000Z,2.58
2023-12-11T05:47:44.747Z,3.72
2023-12-11T05:50:12.358Z,2.50
2023-12-11T05:52:39.203Z,3.33
2023-12-11T05:55:06.501Z,2.08
2023-12-11T05:57:33.492Z,3.10
2023-12-11T06:00:00.374Z,2.83
2023-12-11T06:02:27.278Z,2.83
2023-12-11T06:04:54.202Z,3.17
2023-12-11T06:07:21.091Z,2.58
2023-12-11T06:09:47.876Z,2.55
2023-12-11T06:12:14.794Z,3.30
2023-12-11T06:14:44.510Z,2.78
2023-12-11T06:17:12.966Z,3.10
2023-12-11T06:19:45.787Z,4.53
2023-12-11T06:22:13.083Z,2.63
2023-12-11T06:24:43.348Z,2.95
2023-12-11T06:27:10.332Z,2.63
2023-12-11T06:29:37.414Z,3.60
2023-12-11T06:32:04.525Z,3.30
2023-12-11T06:34:31.835Z,2.15
2023-12-11T06:36:58.887Z,3.83
2023-12-11T06:39:28.026Z,3.58
2023-12-11T06:41:55.352Z,3.15
2023-12-11T06:44:23.246Z,2.88
2023-12-11T06:46:50.032Z,2.88
2023-12-11T06:49:16.975Z,2.65
2023-12-11T06:51:43.903Z,3.20
2023-12-11T06:54:12.171Z,2.83
2023-12-11T06:56:39.032Z,3.30
2023-12-11T06:59:05.815Z,4.32
2023-12-11T07:01:34.917Z,3.03
2023-12-11T07:04:02.365Z,3.70
2023-12-11T07:06:29.369Z,2.90
2023-12-11T07:08:56.717Z,2.45
2023-12-11T07:11:23.560Z,2.55
2023-12-11T07:13:50.389Z,2.33
2023-12-11T07:16:17.330Z,3.42
2023-12-11T07:18:45.493Z,3.55
2023-12-11T07:21:12.700Z,3.75
2023-12-11T07:23:39.897Z,2.50
2023-12-11T07:26:10.851Z,2.30
2023-12-11T07:28:38.186Z,3.17
2023-12-11T07:31:06.638Z,2.55
2023-12-11T07:33:34.102Z,2.95
2023-12-11T07:36:01.106Z,2.83
2023-12-11T07:38:27.940Z,3.35
2023-12-11T07:40:56.224Z,4.60
2023-12-11T07:43:23.054Z,2.72
2023-12-11T07:45:50.638Z,2.25
2023-12-11T07:48:17.555Z,2.00
2023-12-11T07:50:44.492Z,3.00
2023-12-11T07:53:11.359Z,2.97
2023-12-11T07:55:38.116Z,2.50
2023-12-11T07:58:04.996Z,2.78
2023-12-11T08:00:32.366Z,2.60
2023-12-11T08:02:59.484Z,2.80
2023-12-11T08:05:26.502Z,2.45
2023-12-11T08:07:53.366Z,2.45
2023-12-11T08:10:20.455Z,2.65
2023-12-11T08:12:52.395Z,2.00
2023-12-11T08:15:19.519Z,2.97
2023-12-11T08:17:46.524Z,2.22
2023-12-11T08:20:18.112Z,1.98
2023-12-11T08:22:45.636Z,3.10
2023-12-11T08:25:14.005Z,2.47
2023-12-11T08:27:41.577Z,2.58
2023-12-11T08:30:09.171Z,3.17
2023-12-11T08:32:38.555Z,1.90
2023-12-11T08:35:06.008Z,2.28
2023-12-11T08:37:33.346Z,2.03
2023-12-11T08:40:00.683Z,3.03
2023-12-11T08:42:27.920Z,1.48
2023-12-11T08:44:54.949Z,2.17
2023-12-11T08:47:21.752Z,2.92
2023-12-11T08:49:48.628Z,2.17
2023-12-11T08:52:15.567Z,1.30
2023-12-11T08:54:42.804Z,1.65
2023-12-11T08:57:10.269Z,2.88
2023-12-11T08:59:38.885Z,1.75
2023-12-11T09:02:06.351Z,1.77
2023-12-11T09:04:34.166Z,2.00
2023-12-11T09:07:01.208Z,1.95
2023-12-11T09:09:28.111Z,2.13
2023-12-11T09:11:54.945Z,2.10
2023-12-11T09:14:21.837Z,1.65
2023-12-11T09:16:48.648Z,1.80
2023-12-11T09:19:15.497Z,1.65
2023-12-11T09:21:42.519Z,1.63
2023-12-11T09:24:11.076Z,1.88
2023-12-11T09:26:37.855Z,1.70
2023-12-11T09:29:04.783Z,1.63
2023-12-11T09:31:31.751Z,1.58
2023-12-11T09:33:58.751Z,1.80
2023-12-11T09:36:25.792Z,2.53
2023-12-11T09:38:52.583Z,2.22
2023-12-11T09:41:19.790Z,1.77
2023-12-11T09:43:46.544Z,1.95
2023-12-11T09:46:13.514Z,1.90
2023-12-11T09:48:40.405Z,2.00
2023-12-11T09:51:07.304Z,3.35
2023-12-11T09:53:34.508Z,2.88
2023-12-11T09:56:01.291Z,1.40
2023-12-11T09:58:28.331Z,1.85
2023-12-11T10:01:01.993Z,1.95
2023-12-11T10:03:29.791Z,2.15
2023-12-11T10:06:00.331Z,2.33
2023-12-11T10:08:27.386Z,2.05
2023-12-11T10:11:23.706Z,1.80
2023-12-11T10:13:51.503Z,2.65
2023-12-11T10:16:47.873Z,2.83
2023-12-11T10:19:14.918Z,1.75
2023-12-11T10:21:42.223Z,1.63
2023-12-11T10:24:14.587Z,1.58
2023-12-11T10:26:56.823Z,1.88
2023-12-11T10:29:24.952Z,1.80
2023-12-11T10:31:52.297Z,2.03
2023-12-11T10:34:19.378Z,2.08
2023-12-11T10:36:50.256Z,1.90
2023-12-11T10:39:17.690Z,1.75
2023-12-11T10:41:46.733Z,1.67
2023-12-11T10:44:39.865Z,2.33
2023-12-11T10:47:13.264Z,1.17
2023-12-11T10:49:41.025Z,1.63
2023-12-11T10:52:08.126Z,1.83
2023-12-11T10:54:44.108Z,1.48
2023-12-11T10:57:18.345Z,1.48
2023-12-11T10:59:46.075Z,1.60
2023-12-11T11:02:14.912Z,1.50
2023-12-11T11:04:42.633Z,1.95
2023-12-11T11:07:29.658Z,1.88
2023-12-11T11:10:24.557Z,1.10
2023-12-11T11:13:12.393Z,1.38
2023-12-11T11:15:39.610Z,2.10
2023-12-11T11:18:07.185Z,1.10
2023-12-11T11:20:35.124Z,1.52
2023-12-11T11:23:17.665Z,1.75
2023-12-11T11:25:52.300Z,1.00
2023-12-11T11:28:39.506Z,1.15
2023-12-11T11:31:15.805Z,1.05
2023-12-11T11:33:51.997Z,1.08
2023-12-11T11:36:20.614Z,1.70
2023-12-11T11:38:58.318Z,3.05
2023-12-11T11:41:31.696Z,1.50
2023-12-11T11:44:08.707Z,1.92
2023-12-11T11:46:52.491Z,1.95
2023-12-11T11:49:32.897Z,2.17
2023-12-11T11:52:00.427Z,2.13
2023-12-11T11:54:27.445Z,1.50
2023-12-11T11:56:54.508Z,1.60
2023-12-11T11:59:21.429Z,1.50
2023-12-11T12:01:51.522Z,1.42
2023-12-11T12:04:35.377Z,2.20
2023-12-11T12:07:03.720Z,1.98
2023-12-11T12:09:33.951Z,1.33
2023-12-11T12:12:01.031Z,1.73
2023-12-11T12:14:28.014Z,1.70
2023-12-11T12:16:56.177Z,1.88
2023-12-11T12:19:35.537Z,1.83
2023-12-11T12:22:05.975Z,2.60
2023-12-11T12:24:32.819Z,1.55
2023-12-11T12:27:02.397Z,1.80
2023-12-11T12:29:30.937Z,1.63
2023-12-11T12:31:58.564Z,1.50
2023-12-11T12:34:25.985Z,2.65
2023-12-11T12:36:54.965Z,1.40
2023-12-11T12:39:21.726Z,2.35
2023-12-11T12:41:53.750Z,2.00
2023-12-11T12:44:21.429Z,1.90
2023-12-11T12:46:48.313Z,1.83
2023-12-11T12:49:18.277Z,2.65
2023-12-11T12:51:51.646Z,2.03
2023-12-11T12:56:45.685Z,1.10
2023-12-11T12:59:12.793Z,2.47
2023-12-11T13:01:41.090Z,3.00
2023-12-11T13:04:08.815Z,2.05
2023-12-11T13:06:36.141Z,2.60
2023-12-11T13:09:04.030Z,2.33
2023-12-11T13:11:44.569Z,1.73
2023-12-11T13:14:14.124Z,1.83
2023-12-11T13:16:47.320Z,1.80
2023-12-11T13:19:15.907Z,2.22
2023-12-11T13:21:43.078Z,1.25
2023-12-11T13:24:10.164Z,2.42
2023-12-11T13:26:36.982Z,1.70
2023-12-11T13:29:06.732Z,1.35
2023-12-11T13:31:33.517Z,1.45
2023-12-11T13:34:00.373Z,1.80
2023-12-11T13:36:27.282Z,1.88
2023-12-11T13:38:54.093Z,3.80
2023-12-11T13:41:20.932Z,1.33
2023-12-11T13:43:47.726Z,3.30
2023-12-11T13:46:14.643Z,1.92
2023-12-11T13:48:41.558Z,1.80
2023-12-11T13:51:09.664Z,1.80
2023-12-11T13:53:36.897Z,1.58
2023-12-11T13:56:04.197Z,1.23
2023-12-11T13:58:31.138Z,1.27
2023-12-11T14:00:58.216Z,1.45
2023-12-11T14:03:25.109Z,3.10
2023-12-11T14:05:52.887Z,1.33
2023-12-11T14:08:19.828Z,1.33
2023-12-11T14:10:46.989Z,1.77
2023-12-11T14:13:14.757Z,1.70
2023-12-11T14:15:46.716Z,1.98
2023-12-11T14:18:14.234Z,1.55
2023-12-11T14:20:41.487Z,1.75
2023-12-11T14:23:08.584Z,1.70
2023-12-11T14:25:35.945Z,1.80
2023-12-11T14:28:05.288Z,1.33
2023-12-11T14:30:39.219Z,2.20
2023-12-11T14:33:06.967Z,2.33
2023-12-11T14:35:34.106Z,1.60
2023-12-11T14:38:01.085Z,1.77
2023-12-11T14:40:28.020Z,1.60
2023-12-11T14:42:54.906Z,1.98
2023-12-11T14:45:22.071Z,1.73
2023-12-11T14:47:49.020Z,2.38
2023-12-11T14:50:16.117Z,3.83
2023-12-11T14:52:43.515Z,1.80
2023-12-11T14:55:10.769Z,2.70
2023-12-11T14:57:38.100Z,1.95
2023-12-11T15:00:07.586Z,1.70
2023-12-11T15:02:34.677Z,2.08
2023-12-11T15:05:01.695Z,2.45
2023-12-11T15:07:29.313Z,2.40
2023-12-11T15:09:56.524Z,1.70
2023-12-11T15:12:24.065Z,2.10
2023-12-11T15:14:51.712Z,2.55
2023-12-11T15:17:18.446Z,2.65
2023-12-11T15:19:46.252Z,2.25
2023-12-11T15:22:13.400Z,2.63
2023-12-11T15:24:40.304Z,2.22
2023-12-11T15:27:07.161Z,1.70
2023-12-11T15:29:37.271Z,2.63
2023-12-11T15:32:04.986Z,2.05
2023-12-11T15:34:32.553Z,1.80
2023-12-11T15:36:59.549Z,2.03
2023-12-11T15:39:26.400Z,2.60
2023-12-11T15:41:53.193Z,1.70
2023-12-11T15:44:20.016Z,2.25
2023-12-11T15:46:46.934Z,1.92
2023-12-11T15:49:14.112Z,1.73
2023-12-11T15:51:41.283Z,2.47
2023-12-11T15:54:08.181Z,3.00
2023-12-11T15:56:35.054Z,2.47
2023-12-11T15:59:01.921Z,2.40
2023-12-11T16:01:29.068Z,1.83
2023-12-11T16:03:56.151Z,4.60
2023-12-11T16:06:23.186Z,2.13
2023-12-11T16:08:50.112Z,2.00
2023-12-11T16:11:16.976Z,2.00
2023-12-11T16:13:43.934Z,2.20
2023-12-11T16:16:13.862Z,3.65
2023-12-11T16:18:41.851Z,2.00
2023-12-11T16:21:08.845Z,1.40
2023-12-11T16:23:35.687Z,2.35
2023-12-11T16:26:05.395Z,3.10
2023-12-11T16:28:34.671Z,2.30
2023-12-11T16:31:01.973Z,2.33
2023-12-11T16:33:29.147Z,1.98
2023-12-11T16:35:56.159Z,1.75
2023-12-11T16:38:23.502Z,2.92
2023-12-11T16:40:50.399Z,2.33
2023-12-11T16:43:18.798Z,2.30
2023-12-11T16:45:45.966Z,3.70
2023-12-11T16:48:13.423Z,2.35
2023-12-11T16:50:43.969Z,2.70
2023-12-11T16:53:10.972Z,3.35
2023-12-11T16:55:37.781Z,4.95
2023-12-11T16:58:04.716Z,4.38
2023-12-11T17:00:31.655Z,3.78
2023-12-11T17:02:58.565Z,2.97
2023-12-11T17:05:25.468Z,4.05
2023-12-11T17:07:52.514Z,5.72
2023-12-11T17:10:19.561Z,2.83
2023-12-11T17:12:47.056Z,3.70
2023-12-11T17:15:13.924Z,4.97
2023-12-11T17:17:40.879Z,5.13
2023-12-11T17:20:08.521Z,5.05
2023-12-11T17:22:35.489Z,6.00
2023-12-11T17:25:04.626Z,7.68
2023-12-11T17:27:34.781Z,7.88
2023-12-11T17:30:03.831Z,7.53
2023-12-11T17:32:32.681Z,6.50
2023-12-11T17:35:00.124Z,7.38
2023-12-11T17:37:27.185Z,6.65
2023-12-11T17:39:55.534Z,6.88
2023-12-11T17:42:22.355Z,7.50
2023-12-11T17:44:49.186Z,5.93
2023-12-11T17:47:16.032Z,6.90
2023-12-11T17:49:42.965Z,6.22
2023-12-11T17:52:11.830Z,5.63
2023-12-11T17:54:39.196Z,5.80
2023-12-11T17:57:06.145Z,4.20
2023-12-11T17:59:32.916Z,5.60
2023-12-11T18:01:59.810Z,5.38
2023-12-11T18:04:26.756Z,5.63
2023-12-11T18:06:55.133Z,5.50
2023-12-11T18:09:22.154Z,6.07
2023-12-11T18:11:48.966Z,5.60
2023-12-11T18:14:15.834Z,5.22
2023-12-11T18:16:42.621Z,4.68
2023-12-11T18:19:09.599Z,4.45
2023-12-11T18:21:36.414Z,4.95
2023-12-11T18:24:05.808Z,5.22
2023-12-11T18:26:32.593Z,5.45
2023-12-11T18:28:59.390Z,5.45
2023-12-11T18:31:26.281Z,5.35
2023-12-11T18:33:53.179Z,5.50
2023-12-11T18:36:20.072Z,5.13
2023-12-11T18:38:46.828Z,8.52
2023-12-11T18:41:22.566Z,6.95
2023-12-11T18:43:49.411Z,6.22
2023-12-11T18:46:22.562Z,6.03
2023-12-11T18:48:49.757Z,6.30
2023-12-11T18:51:30.201Z,6.68
2023-12-11T18:53:57.243Z,6.15
2023-12-11T18:56:24.529Z,5.72
2023-12-11T18:58:51.379Z,6.25
2023-12-11T19:01:19.210Z,6.70
2023-12-11T19:03:46.271Z,6.07
2023-12-11T19:06:13.409Z,6.55
2023-12-11T19:08:40.270Z,6.55
2023-12-11T19:11:07.398Z,6.10
2023-12-11T19:13:34.364Z,5.40
2023-12-11T19:16:01.224Z,5.53
2023-12-11T19:18:28.406Z,7.45
2023-12-11T19:20:55.390Z,5.38
2023-12-11T19:23:23.024Z,6.80
2023-12-11T19:25:52.276Z,5.40
2023-12-11T19:28:23.805Z,5.32
2023-12-11T19:30:50.837Z,6.60
2023-12-11T19:33:17.870Z,9.82
2023-12-11T19:35:44.829Z,7.80
2023-12-11T19:38:13.373Z,5.70
2023-12-11T19:40:40.586Z,6.38
2023-12-11T19:43:08.293Z,7.88
2023-12-11T19:45:35.181Z,6.70
2023-12-11T19:48:02.084Z,7.32
2023-12-11T19:50:28.987Z,6.45
2023-12-11T19:52:55.842Z,6.68
2023-12-11T19:55:22.782Z,5.68
2023-12-11T19:57:49.697Z,5.82
2023-12-11T20:00:17.021Z,6.07
2023-12-11T20:02:46.257Z,6.75
2023-12-11T20:05:13.611Z,5.70
2023-12-11T20:07:40.570Z,5.40
2023-12-11T20:10:09.925Z,5.35
2023-12-11T20:12:37.016Z,5.35
2023-12-11T20:15:04.917Z,5.63
2023-12-11T20:17:31.979Z,6.47
2023-12-11T20:20:00.966Z,5.43
2023-12-11T20:22:28.155Z,6.50
2023-12-11T20:24:55.380Z,7.47
2023-12-11T20:27:22.163Z,5.30
2023-12-11T20:29:49.311Z,6.85
2023-12-11T20:32:16.090Z,6.45
2023-12-11T20:34:42.942Z,6.55
2023-12-11T20:37:09.815Z,5.97
2023-12-11T20:39:36.594Z,7.50
2023-12-11T20:42:03.370Z,6.63
2023-12-11T20:44:30.164Z,6.57
2023-12-11T20:46:56.960Z,6.10
2023-12-11T20:49:23.877Z,9.00
2023-12-11T20:51:50.907Z,6.63
2023-12-11T20:54:17.681Z,7.60
2023-12-11T20:56:44.427Z,6.07
2023-12-11T20:59:11.244Z,6.00
2023-12-11T21:01:38.789Z,6.30
2023-12-11T21:04:06.525Z,6.00
2023-12-11T21:06:33.561Z,7.80
2023-12-11T21:09:00.963Z,9.20
2023-12-11T21:11:28.100Z,5.88
2023-12-11T21:13:55.049Z,5.85
2023-12-11T21:16:22.104Z,5.70
2023-12-11T21:18:50.395Z,7.18
2023-12-11T21:21:21.671Z,6.55
2023-12-11T21:23:49.300Z,7.35
2023-12-11T21:26:19.368Z,5.95
2023-12-11T21:28:46.492Z,6.93
2023-12-11T21:31:30.031Z,7.22
2023-12-11T21:33:57.375Z,6.22
2023-12-11T21:36:32.220Z,7.15
2023-12-11T21:39:00.160Z,6.35
2023-12-11T21:41:27.195Z,5.60
2023-12-11T21:43:54.144Z,5.85
2023-12-11T21:46:21.262Z,6.10
2023-12-11T21:48:49.255Z,6.03
2023-12-11T21:51:17.563Z,6.05
2023-12-11T21:53:44.924Z,6.70
2023-12-11T21:56:12.002Z,6.75
2023-12-11T21:58:38.917Z,5.78
2023-12-11T22:01:05.946Z,5.85
2023-12-11T22:03:33.025Z,7.30
2023-12-11T22:05:59.993Z,6.20
2023-12-11T22:08:27.701Z,7.13
2023-12-11T22:10:54.907Z,7.38
2023-12-11T22:13:21.852Z,6.28
2023-12-11T22:15:48.643Z,6.38
2023-12-11T22:18:17.411Z,6.70
2023-12-11T22:20:44.623Z,5.38
2023-12-11T22:23:12.123Z,8.20
2023-12-11T22:25:39.117Z,7.15
2023-12-11T22:28:06.103Z,8.50
2023-12-11T22:30:33.070Z,5.45
2023-12-11T22:32:59.947Z,7.75
2023-12-11T22:35:26.890Z,6.07
2023-12-11T22:37:53.672Z,7.15
2023-12-11T22:40:20.731Z,7.20
2023-12-11T22:42:48.415Z,5.85
2023-12-11T22:45:17.669Z,4.22
2023-12-11T22:47:44.961Z,5.45
2023-12-11T22:50:12.188Z,4.32
2023-12-11T22:52:39.008Z,6.60
2023-12-11T22:55:06.250Z,4.63
2023-12-11T22:57:33.228Z,6.30
2023-12-11T23:00:00.351Z,3.97
2023-12-11T23:02:27.743Z,3.70
2023-12-11T23:04:56.658Z,4.32
2023-12-11T23:07:23.738Z,4.13
2023-12-11T23:09:50.561Z,4.95
2023-12-11T23:12:18.447Z,4.18
2023-12-11T23:14:45.438Z,3.25
2023-12-11T23:17:12.275Z,4.03
2023-12-11T23:19:39.262Z,4.60
2023-12-11T23:22:06.456Z,5.57
2023-12-11T23:24:33.300Z,4.38
2023-12-11T23:27:00.258Z,4.55
2023-12-11T23:29:27.101Z,3.58
2023-12-11T23:31:53.910Z,3.20
2023-12-11T23:34:21.409Z,3.50
2023-12-11T23:36:48.386Z,4.05
2023-12-11T23:39:15.179Z,4.43
2023-12-11T23:41:42.447Z,3.45
2023-12-11T23:44:09.273Z,3.30
2023-12-11T23:46:36.282Z,5.20
2023-12-11T23:49:03.447Z,3.83
2023-12-11T23:51:30.273Z,2.88
2023-12-11T23:53:57.206Z,4.70
2023-12-11T23:56:24.296Z,3.75
2023-12-11T23:58:51.439Z,6.35
